Time;durP1;ratioP1;P1;durP2;ratioP2;P2;SDS_P1;SDS_P2;PMS_P1;PMS_P2;Temp;Humidity;BMP_temperature;BMP_pressure;BME280_temperature;BME280_humidity;BME280_pressure;Samples;Min_cycle;Max_cycle;Signal;HPM_P1;HPM_P2
2024/01/15 00:02:36;;;;;;;28.60;13.20;;;;;;;;;;6314670;27;20063;-76
2024/01/15 00:05:39;;;;;;;19.48;11.23;;;;;;;;;;6331681;28;20631;-76
2024/01/15 00:09:46;;;;;;;26.88;15.38;;;;;;;;;;6330556;28;20811;-76
2024/01/15 00:12:50;;;;;;;29.77;11.52;;;;;;;;;;6347862;27;20084;-76
2024/01/15 00:15:53;;;;;;;14.63;10.95;;;;;;;;;;6295798;28;20049;-77
2024/01/15 00:18:56;;;;;;;22.52;10.05;;;;;;;;;;6342924;28;20132;-76
2024/01/15 00:21:59;;;;;;;12.70;7.43;;;;;;;;;;6317565;28;20138;-76
2024/01/15 00:25:02;;;;;;;16.85;9.55;;;;;;;;;;6334833;27;20457;-77
2024/01/15 00:28:05;;;;;;;15.48;9.02;;;;;;;;;;6368073;27;20111;-76
2024/01/15 00:31:08;;;;;;;9.40;8.13;;;;;;;;;;6341734;28;20040;-77
2024/01/15 00:34:10;;;;;;;14.88;8.60;;;;;;;;;;6352321;27;20044;-77
2024/01/15 00:37:13;;;;;;;21.60;8.95;;;;;;;;;;6353983;27;20104;-77
2024/01/15 00:40:17;;;;;;;9.00;7.38;;;;;;;;;;6334578;28;20050;-76
2024/01/15 00:43:19;;;;;;;10.20;7.32;;;;;;;;;;6342109;27;20055;-76
2024/01/15 00:46:21;;;;;;;14.80;8.52;;;;;;;;;;6343394;27;20734;-76
2024/01/15 00:49:24;;;;;;;11.95;10.80;;;;;;;;;;6331746;27;20075;-78
2024/01/15 00:52:26;;;;;;;13.77;11.70;;;;;;;;;;6342387;28;20047;-78
2024/01/15 00:55:29;;;;;;;18.33;12.43;;;;;;;;;;6332941;27;20184;-77
2024/01/15 00:58:33;;;;;;;18.42;9.82;;;;;;;;;;6347155;27;20054;-77
2024/01/15 01:01:35;;;;;;;19.80;9.65;;;;;;;;;;6292062;27;20127;-77
2024/01/15 01:04:38;;;;;;;16.50;9.93;;;;;;;;;;6303004;27;20047;-78
2024/01/15 01:07:40;;;;;;;15.98;14.18;;;;;;;;;;6326471;27;20776;-77
2024/01/15 01:10:45;;;;;;;15.35;10.00;;;;;;;;;;6326880;27;20047;-78
2024/01/15 01:13:47;;;;;;;15.55;8.70;;;;;;;;;;6329466;27;20047;-77
2024/01/15 01:16:49;;;;;;;12.95;8.88;;;;;;;;;;6361641;27;20050;-77
2024/01/15 01:19:52;;;;;;;18.27;12.73;;;;;;;;;;6335393;27;20039;-77
2024/01/15 01:22:55;;;;;;;14.75;9.00;;;;;;;;;;6326480;27;20057;-78
2024/01/15 01:25:59;;;;;;;12.63;8.15;;;;;;;;;;6358220;27;20518;-77
2024/01/15 01:29:02;;;;;;;16.00;9.77;;;;;;;;;;6325000;27;20051;-78
2024/01/15 01:32:04;;;;;;;14.45;7.78;;;;;;;;;;6339838;27;20889;-78
2024/01/15 01:35:08;;;;;;;25.30;9.77;;;;;;;;;;6322466;27;20043;-77
2024/01/15 01:38:12;;;;;;;12.98;7.57;;;;;;;;;;6311823;27;20046;-77
2024/01/15 01:41:15;;;;;;;20.25;10.10;;;;;;;;;;6321245;27;20191;-78
2024/01/15 01:44:18;;;;;;;14.25;8.57;;;;;;;;;;6322887;27;20051;-77
2024/01/15 01:47:23;;;;;;;15.93;9.25;;;;;;;;;;6339155;27;20043;-77
2024/01/15 01:50:25;;;;;;;18.83;10.95;;;;;;;;;;6343056;27;20187;-78
2024/01/15 01:53:27;;;;;;;16.83;10.50;;;;;;;;;;6320599;27;20047;-78
2024/01/15 01:56:30;;;;;;;16.52;9.75;;;;;;;;;;6305666;27;20078;-77
2024/01/15 01:59:34;;;;;;;19.48;9.70;;;;;;;;;;6321730;27;20051;-78
2024/01/15 02:02:36;;;;;;;19.67;6.78;;;;;;;;;;6306918;27;20571;-78
2024/01/15 02:05:40;;;;;;;12.05;6.18;;;;;;;;;;6299194;27;20093;-77
2024/01/15 02:08:43;;;;;;;12.68;11.52;;;;;;;;;;6344879;27;20700;-77
2024/01/15 02:11:49;;;;;;;15.90;9.63;;;;;;;;;;6289147;27;20055;-77
2024/01/15 02:14:51;;;;;;;17.75;11.35;;;;;;;;;;6299367;27;20047;-78
2024/01/15 02:18:02;;;;;;;20.95;12.18;;;;;;;;;;6322388;27;20039;-77
2024/01/15 02:21:05;;;;;;;15.05;11.48;;;;;;;;;;6326712;27;20140;-76
2024/01/15 02:24:08;;;;;;;18.58;11.85;;;;;;;;;;6342436;27;20508;-77
2024/01/15 02:27:10;;;;;;;17.42;11.85;;;;;;;;;;6304032;27;20055;-77
2024/01/15 02:30:13;;;;;;;22.20;9.77;;;;;;;;;;6329954;27;20073;-77
2024/01/15 02:33:16;;;;;;;20.25;9.82;;;;;;;;;;6320244;27;20039;-77
2024/01/15 02:36:19;;;;;;;16.00;9.60;;;;;;;;;;6322370;27;20709;-77
2024/01/15 02:39:21;;;;;;;20.92;10.52;;;;;;;;;;6341778;27;20545;-77
2024/01/15 02:42:26;;;;;;;13.20;7.57;;;;;;;;;;6325699;27;20061;-78
2024/01/15 02:45:29;;;;;;;18.75;10.38;;;;;;;;;;6324509;27;20139;-77
2024/01/15 02:48:34;;;;;;;16.30;9.73;;;;;;;;;;6342928;27;20091;-75
2024/01/15 02:51:37;;;;;;;18.65;9.90;;;;;;;;;;6328322;27;20653;-76
2024/01/15 02:54:41;;;;;;;10.05;7.50;;;;;;;;;;6342114;27;20043;-77
2024/01/15 02:57:44;;;;;;;14.25;7.88;;;;;;;;;;6343703;27;20054;-77
2024/01/15 03:00:46;;;;;;;12.68;11.20;;;;;;;;;;6340683;27;20046;-76
2024/01/15 03:03:48;;;;;;;18.60;10.27;;;;;;;;;;6300102;28;20047;-79
2024/01/15 03:06:51;;;;;;;37.13;20.50;;;;;;;;;;6320537;27;20051;-79
2024/01/15 03:09:53;;;;;;;21.42;12.18;;;;;;;;;;6325433;27;20058;-78
2024/01/15 03:13:01;;;;;;;20.48;10.77;;;;;;;;;;6314882;27;20054;-78
2024/01/15 03:16:06;;;;;;;18.55;11.02;;;;;;;;;;6350287;27;20043;-76
2024/01/15 03:19:08;;;;;;;15.70;8.90;;;;;;;;;;6322526;27;20066;-76
2024/01/15 03:22:11;;;;;;;18.50;10.45;;;;;;;;;;6357872;27;20100;-77
2024/01/15 03:25:13;;;;;;;18.50;10.80;;;;;;;;;;6394379;27;20082;-77
2024/01/15 03:28:16;;;;;;;16.10;9.95;;;;;;;;;;6362546;27;20059;-77
2024/01/15 03:31:18;;;;;;;16.38;11.30;;;;;;;;;;6348706;27;20066;-77
2024/01/15 03:34:20;;;;;;;22.85;10.50;;;;;;;;;;6381597;27;20099;-77
2024/01/15 03:37:26;;;;;;;18.88;11.60;;;;;;;;;;6347953;27;20047;-76
2024/01/15 03:40:28;;;;;;;16.63;13.00;;;;;;;;;;6324798;27;20527;-76
2024/01/15 03:43:30;;;;;;;18.50;9.73;;;;;;;;;;6359817;28;20116;-76
2024/01/15 03:46:33;;;;;;;17.33;9.65;;;;;;;;;;6338230;28;20040;-77
2024/01/15 03:49:35;;;;;;;18.20;10.85;;;;;;;;;;6331438;28;20437;-77
2024/01/15 03:52:38;;;;;;;12.20;8.13;;;;;;;;;;6361202;27;20046;-79
2024/01/15 03:55:40;;;;;;;18.83;10.77;;;;;;;;;;6348097;28;20184;-79
2024/01/15 03:58:42;;;;;;;12.80;9.80;;;;;;;;;;6360963;28;20043;-78
2024/01/15 04:01:52;;;;;;;17.45;8.82;;;;;;;;;;6368409;28;20065;-77
2024/01/15 04:04:54;;;;;;;17.70;7.93;;;;;;;;;;6377873;27;20068;-76
2024/01/15 04:07:56;;;;;;;12.43;5.95;;;;;;;;;;6386775;28;20154;-78
2024/01/15 04:10:59;;;;;;;18.98;10.95;;;;;;;;;;6344444;27;20047;-78
2024/01/15 04:14:01;;;;;;;22.33;10.70;;;;;;;;;;6345928;27;20883;-76
2024/01/15 04:17:04;;;;;;;15.52;10.30;;;;;;;;;;6350705;28;20054;-76
2024/01/15 04:20:07;;;;;;;20.60;14.18;;;;;;;;;;6355174;27;20023;-77
2024/01/15 04:23:09;;;;;;;17.27;8.85;;;;;;;;;;6322972;27;20049;-77
2024/01/15 04:26:11;;;;;;;10.40;7.93;;;;;;;;;;6333574;28;20047;-77
2024/01/15 04:29:13;;;;;;;15.63;10.68;;;;;;;;;;6361516;28;20180;-76
2024/01/15 04:32:15;;;;;;;26.30;12.95;;;;;;;;;;6353661;27;20627;-76
2024/01/15 04:35:19;;;;;;;13.60;12.23;;;;;;;;;;6347500;27;20050;-76
2024/01/15 04:38:22;;;;;;;24.13;13.15;;;;;;;;;;6348470;27;20047;-76
2024/01/15 04:41:24;;;;;;;18.48;12.98;;;;;;;;;;6344132;27;20051;-76
2024/01/15 04:44:27;;;;;;;14.90;9.50;;;;;;;;;;6329408;27;20069;-76
2024/01/15 04:47:31;;;;;;;22.80;14.13;;;;;;;;;;6353488;27;20552;-77
2024/01/15 04:50:33;;;;;;;26.48;13.85;;;;;;;;;;6362953;27;20043;-74
2024/01/15 04:53:35;;;;;;;22.88;13.23;;;;;;;;;;6326343;27;20107;-75
2024/01/15 04:56:38;;;;;;;36.95;19.60;;;;;;;;;;6341434;27;20130;-75
2024/01/15 04:59:40;;;;;;;28.80;15.25;;;;;;;;;;6350095;27;20050;-75
2024/01/15 05:02:42;;;;;;;26.95;16.05;;;;;;;;;;6358346;27;20051;-75
2024/01/15 05:05:44;;;;;;;25.65;16.30;;;;;;;;;;6367095;27;20059;-76
2024/01/15 05:08:47;;;;;;;35.05;17.08;;;;;;;;;;6358476;27;20054;-75
2024/01/15 05:11:50;;;;;;;30.38;17.00;;;;;;;;;;6340668;27;20604;-76
2024/01/15 05:14:52;;;;;;;28.13;13.32;;;;;;;;;;6343502;27;20055;-73
2024/01/15 05:17:54;;;;;;;21.30;12.70;;;;;;;;;;6344033;27;20039;-75
2024/01/15 05:20:56;;;;;;;23.85;12.95;;;;;;;;;;6311472;27;20061;-75
2024/01/15 05:23:58;;;;;;;24.58;14.98;;;;;;;;;;6344355;27;20047;-75
2024/01/15 05:27:01;;;;;;;25.90;15.15;;;;;;;;;;6362942;27;20039;-75
2024/01/15 05:30:05;;;;;;;19.77;13.38;;;;;;;;;;6320841;27;20796;-76
2024/01/15 05:33:07;;;;;;;24.98;12.77;;;;;;;;;;6359550;27;20085;-76
2024/01/15 05:36:10;;;;;;;21.90;14.43;;;;;;;;;;6308848;27;20126;-77
2024/01/15 05:39:12;;;;;;;19.92;13.55;;;;;;;;;;6345840;27;20054;-76
2024/01/15 05:42:15;;;;;;;36.38;21.05;;;;;;;;;;6322122;27;20047;-76
2024/01/15 05:45:18;;;;;;;41.38;24.45;;;;;;;;;;6360450;27;20047;-77
2024/01/15 05:48:21;;;;;;;66.95;32.55;;;;;;;;;;6356414;27;20050;-77
2024/01/15 05:51:24;;;;;;;39.95;23.90;;;;;;;;;;6303215;27;20043;-76
2024/01/15 05:54:26;;;;;;;52.85;25.98;;;;;;;;;;6339961;27;20460;-76
2024/01/15 05:57:28;;;;;;;22.50;14.23;;;;;;;;;;6323125;27;20054;-76
2024/01/15 06:00:32;;;;;;;25.20;15.43;;;;;;;;;;6307829;27;20617;-76
2024/01/15 06:03:35;;;;;;;24.60;13.18;;;;;;;;;;6316411;27;20047;-77
2024/01/15 06:06:39;;;;;;;23.02;10.93;;;;;;;;;;6307370;27;20062;-76
2024/01/15 06:09:41;;;;;;;21.92;17.55;;;;;;;;;;6360348;27;20457;-77
2024/01/15 06:12:44;;;;;;;23.25;12.90;;;;;;;;;;6339534;27;20480;-77
2024/01/15 06:15:47;;;;;;;23.80;13.02;;;;;;;;;;6309499;27;20130;-76
2024/01/15 06:18:49;;;;;;;37.42;23.63;;;;;;;;;;6335349;27;20085;-77
2024/01/15 06:21:52;;;;;;;41.15;20.33;;;;;;;;;;6326777;27;20544;-76
2024/01/15 06:24:55;;;;;;;28.00;17.90;;;;;;;;;;6345506;27;20043;-76
2024/01/15 06:27:57;;;;;;;32.00;19.80;;;;;;;;;;6305559;27;20157;-76
2024/01/15 06:31:00;;;;;;;23.13;12.52;;;;;;;;;;6332107;27;20143;-77
2024/01/15 06:34:02;;;;;;;35.33;23.45;;;;;;;;;;6314272;27;20129;-76
2024/01/15 06:37:04;;;;;;;40.78;24.00;;;;;;;;;;6336321;27;20035;-78
2024/01/15 06:40:08;;;;;;;47.33;25.45;;;;;;;;;;6314164;27;20049;-76
2024/01/15 06:43:14;;;;;;;37.00;22.73;;;;;;;;;;6355044;27;20107;-77
2024/01/15 06:46:23;;;;;;;34.45;19.65;;;;;;;;;;6341694;27;20177;-77
2024/01/15 06:49:26;;;;;;;39.88;17.67;;;;;;;;;;6328625;27;20042;-77
2024/01/15 06:52:29;;;;;;;34.47;18.92;;;;;;;;;;6343533;27;20062;-77
2024/01/15 06:55:31;;;;;;;38.42;20.77;;;;;;;;;;6320413;27;20066;-77
2024/01/15 06:58:34;;;;;;;60.55;32.42;;;;;;;;;;6324894;27;20051;-76
2024/01/15 07:01:36;;;;;;;58.80;32.63;;;;;;;;;;6336884;27;20581;-76
2024/01/15 07:04:39;;;;;;;43.65;23.30;;;;;;;;;;6353799;27;20042;-77
2024/01/15 07:07:44;;;;;;;48.90;22.52;;;;;;;;;;6336577;27;20043;-76
2024/01/15 07:10:46;;;;;;;36.97;18.95;;;;;;;;;;6321115;27;20059;-77
2024/01/15 07:13:48;;;;;;;47.97;27.73;;;;;;;;;;6344455;27;20047;-77
2024/01/15 07:16:50;;;;;;;48.30;23.00;;;;;;;;;;6354205;27;20765;-77
2024/01/15 07:19:53;;;;;;;16.98;11.95;;;;;;;;;;6301612;27;20074;-79
2024/01/15 07:22:56;;;;;;;32.80;20.77;;;;;;;;;;6336243;27;20581;-82
2024/01/15 07:25:59;;;;;;;34.88;21.13;;;;;;;;;;6327141;27;20047;-80
2024/01/15 07:29:03;;;;;;;48.33;24.65;;;;;;;;;;6312005;27;20108;-80
2024/01/15 07:32:07;;;;;;;45.72;23.05;;;;;;;;;;6331057;27;20050;-80
2024/01/15 07:35:15;;;;;;;23.48;12.50;;;;;;;;;;6342002;27;20642;-81
2024/01/15 07:38:17;;;;;;;39.72;17.30;;;;;;;;;;6358038;27;20051;-80
2024/01/15 07:41:19;;;;;;;20.33;12.75;;;;;;;;;;6337733;28;20043;-79
2024/01/15 07:44:22;;;;;;;34.10;20.38;;;;;;;;;;6318429;27;20124;-79
2024/01/15 07:47:25;;;;;;;10.38;6.90;;;;;;;;;;6357678;27;20058;-78
2024/01/15 07:50:29;;;;;;;38.70;21.63;;;;;;;;;;6346475;28;20035;-78
2024/01/15 07:53:31;;;;;;;28.83;15.80;;;;;;;;;;6316679;28;20047;-77
2024/01/15 07:56:34;;;;;;;42.10;21.85;;;;;;;;;;6320209;28;20055;-79
2024/01/15 07:59:37;;;;;;;44.13;24.30;;;;;;;;;;6358165;27;20069;-79
2024/01/15 08:02:40;;;;;;;40.05;21.77;;;;;;;;;;6319153;27;20047;-78
2024/01/15 08:05:45;;;;;;;47.25;25.95;;;;;;;;;;6322151;28;20080;-79
2024/01/15 08:08:51;;;;;;;39.03;24.48;;;;;;;;;;6341887;27;20043;-78
2024/01/15 08:11:53;;;;;;;65.18;35.40;;;;;;;;;;6317894;27;20047;-77
2024/01/15 08:14:55;;;;;;;53.00;28.05;;;;;;;;;;6331777;27;20055;-76
2024/01/15 08:17:59;;;;;;;50.70;28.88;;;;;;;;;;6327097;27;20062;-76
2024/01/15 08:21:03;;;;;;;39.17;24.92;;;;;;;;;;6341740;27;20039;-77
2024/01/15 08:24:05;;;;;;;38.08;19.15;;;;;;;;;;6337287;27;20055;-76
2024/01/15 08:27:08;;;;;;;35.28;22.23;;;;;;;;;;6341131;27;20133;-76
2024/01/15 08:30:10;;;;;;;47.92;22.42;;;;;;;;;;6346154;27;20058;-77
2024/01/15 08:33:13;;;;;;;43.15;25.67;;;;;;;;;;6320489;27;20142;-77
2024/01/15 08:36:26;;;;;;;35.90;20.55;;;;;;;;;;6317755;27;20103;-77
2024/01/15 08:39:29;;;;;;;23.13;20.60;;;;;;;;;;6297730;27;20752;-78
2024/01/15 08:42:33;;;;;;;35.20;21.27;;;;;;;;;;6347599;27;20039;-78
2024/01/15 08:45:38;;;;;;;35.83;20.88;;;;;;;;;;6361225;27;20092;-77
2024/01/15 08:48:41;;;;;;;47.25;22.35;;;;;;;;;;6374583;27;20058;-77
2024/01/15 08:51:44;;;;;;;39.90;22.20;;;;;;;;;;6380640;27;21037;-78
2024/01/15 08:54:46;;;;;;;33.97;19.70;;;;;;;;;;6353683;27;20035;-77
2024/01/15 08:57:49;;;;;;;33.10;18.30;;;;;;;;;;6340374;27;20043;-78
2024/01/15 09:00:51;;;;;;;38.75;19.98;;;;;;;;;;6347364;27;20133;-78
2024/01/15 09:03:54;;;;;;;30.35;15.60;;;;;;;;;;6386858;27;20065;-76
2024/01/15 09:06:56;;;;;;;30.27;17.23;;;;;;;;;;6381733;27;20065;-76
2024/01/15 09:09:59;;;;;;;29.08;16.88;;;;;;;;;;6343384;27;20044;-77
2024/01/15 09:13:03;;;;;;;36.15;18.77;;;;;;;;;;6339950;27;20035;-76
2024/01/15 09:16:07;;;;;;;37.95;17.80;;;;;;;;;;6360765;27;20042;-78
2024/01/15 09:19:10;;;;;;;30.45;20.75;;;;;;;;;;6374570;27;20039;-77
2024/01/15 09:22:14;;;;;;;24.10;14.90;;;;;;;;;;6368204;27;20062;-76
2024/01/15 09:25:16;;;;;;;42.80;20.33;;;;;;;;;;6356057;27;20040;-77
2024/01/15 09:28:18;;;;;;;29.90;15.52;;;;;;;;;;6332921;27;20043;-76
2024/01/15 09:31:21;;;;;;;26.80;13.23;;;;;;;;;;6349322;27;20043;-77
2024/01/15 09:34:23;;;;;;;27.17;13.15;;;;;;;;;;6374336;27;20111;-77
2024/01/15 09:37:28;;;;;;;19.65;10.93;;;;;;;;;;6375273;27;20041;-77
2024/01/15 09:40:48;;;;;;;22.95;13.98;;;;;;;;;;6356793;27;20374;-77
2024/01/15 09:43:52;;;;;;;28.77;17.50;;;;;;;;;;6346721;27;20110;-76
2024/01/15 09:46:55;;;;;;;37.78;18.33;;;;;;;;;;6366858;27;20047;-73
2024/01/15 09:49:58;;;;;;;28.50;15.95;;;;;;;;;;6364646;27;20039;-77
2024/01/15 09:53:05;;;;;;;38.10;19.88;;;;;;;;;;6369786;27;20089;-77
2024/01/15 09:56:09;;;;;;;41.00;22.02;;;;;;;;;;6371024;27;20051;-77
2024/01/15 10:25:51;;;;;;;46.83;33.47;;;;;;;;;;6273315;27;20771;-77
2024/01/15 10:28:53;;;;;;;46.30;29.60;;;;;;;;;;6254405;28;20053;-76
2024/01/15 10:31:55;;;;;;;47.88;32.30;;;;;;;;;;6264617;28;20041;-79
2024/01/15 10:34:57;;;;;;;40.33;25.25;;;;;;;;;;6243608;27;20054;-76
2024/01/15 10:38:04;;;;;;;36.55;24.40;;;;;;;;;;6267969;27;20050;-77
2024/01/15 10:41:06;;;;;;;35.47;26.13;;;;;;;;;;6250726;28;20924;-76
2024/01/15 10:57:46;;;;;;;35.50;22.90;;;;;;;;;;6275623;27;20628;-76
2024/01/15 11:00:49;;;;;;;39.22;24.40;;;;;;;;;;6266378;27;20085;-76
2024/01/15 11:03:51;;;;;;;27.95;14.00;;;;;;;;;;6263365;28;20553;-75
2024/01/15 11:06:53;;;;;;;35.28;21.02;;;;;;;;;;6247814;27;20040;-75
2024/01/15 11:10:00;;;;;;;29.67;16.42;;;;;;;;;;6278372;27;20056;-75
2024/01/15 11:13:02;;;;;;;34.22;19.00;;;;;;;;;;6236879;28;20052;-74
2024/01/15 11:16:09;;;;;;;51.65;35.45;;;;;;;;;;6255911;28;20724;-75
2024/01/15 11:19:12;;;;;;;34.92;20.25;;;;;;;;;;6242389;28;20629;-75
2024/01/15 11:22:30;;;;;;;33.22;19.23;;;;;;;;;;6267698;27;20037;-75
2024/01/15 11:25:38;;;;;;;35.22;20.92;;;;;;;;;;6262064;28;20503;-75
2024/01/15 11:28:49;;;;;;;38.08;24.63;;;;;;;;;;6265574;28;20059;-76
2024/01/15 11:31:54;;;;;;;37.42;22.33;;;;;;;;;;6267845;28;20048;-76
2024/01/15 11:35:02;;;;;;;43.70;26.55;;;;;;;;;;6267810;27;20050;-76
2024/01/15 11:38:07;;;;;;;58.97;29.55;;;;;;;;;;6262191;27;20642;-75
2024/01/15 11:41:15;;;;;;;51.55;30.23;;;;;;;;;;6262931;27;20058;-75
2024/01/15 11:44:17;;;;;;;46.13;28.95;;;;;;;;;;6243625;28;20053;-76
2024/01/15 11:47:51;;;;;;;37.58;23.95;;;;;;;;;;6238814;27;20041;-75
2024/01/15 11:50:55;;;;;;;59.25;32.30;;;;;;;;;;6275310;27;20602;-75
2024/01/15 11:54:03;;;;;;;55.80;33.20;;;;;;;;;;6291343;27;20048;-76
2024/01/15 11:57:10;;;;;;;56.85;34.15;;;;;;;;;;6239399;27;20053;-75
2024/01/15 12:00:13;;;;;;;32.38;20.27;;;;;;;;;;6229846;28;20049;-74
2024/01/15 12:03:15;;;;;;;43.67;26.42;;;;;;;;;;6250548;27;20120;-74
2024/01/15 12:06:18;;;;;;;50.53;28.00;;;;;;;;;;6262036;27;20049;-75
2024/01/15 12:09:21;;;;;;;51.55;25.95;;;;;;;;;;6229314;28;20056;-75
2024/01/15 12:12:43;;;;;;;60.95;31.73;;;;;;;;;;6211450;28;20057;-75
2024/01/15 12:15:47;;;;;;;58.00;34.22;;;;;;;;;;6246267;27;20049;-75
2024/01/15 12:18:49;;;;;;;49.63;28.50;;;;;;;;;;6234328;27;20041;-75
2024/01/15 12:21:54;;;;;;;62.28;32.97;;;;;;;;;;6242307;28;20827;-75
2024/01/15 12:24:57;;;;;;;59.80;31.45;;;;;;;;;;6272329;27;20641;-76
2024/01/15 12:28:00;;;;;;;64.38;36.13;;;;;;;;;;6250941;27;20055;-75
2024/01/15 12:31:05;;;;;;;71.63;40.28;;;;;;;;;;6246124;27;20722;-75
2024/01/15 12:34:07;;;;;;;57.17;31.92;;;;;;;;;;6288459;27;20525;-75
2024/01/15 12:37:11;;;;;;;56.92;30.55;;;;;;;;;;6240237;27;20045;-75
2024/01/15 12:40:19;;;;;;;46.53;28.27;;;;;;;;;;6261788;27;20045;-76
2024/01/15 12:43:21;;;;;;;59.55;32.42;;;;;;;;;;6250762;27;20037;-76
2024/01/15 12:46:23;;;;;;;57.60;31.73;;;;;;;;;;6244300;27;20540;-75
2024/01/15 12:49:26;;;;;;;56.47;31.17;;;;;;;;;;6245428;27;20920;-73
2024/01/15 12:52:29;;;;;;;51.05;30.75;;;;;;;;;;6269624;27;20124;-74
2024/01/15 12:55:34;;;;;;;56.95;32.88;;;;;;;;;;6247038;27;20087;-75
2024/01/15 12:58:36;;;;;;;48.63;28.73;;;;;;;;;;6248993;27;20052;-74
2024/01/15 13:01:38;;;;;;;52.33;27.63;;;;;;;;;;6251696;28;20052;-75
2024/01/15 13:04:41;;;;;;;44.03;27.55;;;;;;;;;;6241555;27;20048;-75
2024/01/15 13:07:43;;;;;;;49.13;26.33;;;;;;;;;;6247213;27;20049;-76
2024/01/15 13:10:46;;;;;;;40.58;23.33;;;;;;;;;;6243083;27;20049;-76
2024/01/15 13:13:48;;;;;;;39.05;23.98;;;;;;;;;;6233504;27;20053;-76
2024/01/15 13:16:51;;;;;;;38.88;23.63;;;;;;;;;;6218040;27;20045;-76
2024/01/15 13:19:53;;;;;;;41.13;24.15;;;;;;;;;;6247750;27;20048;-76
2024/01/15 13:22:55;;;;;;;64.85;33.03;;;;;;;;;;6280063;27;20045;-74
2024/01/15 13:25:58;;;;;;;54.55;30.83;;;;;;;;;;6267212;27;20664;-74
2024/01/15 13:29:06;;;;;;;66.05;34.92;;;;;;;;;;6243781;27;20229;-75
2024/01/15 13:32:09;;;;;;;58.85;31.20;;;;;;;;;;6237403;27;20147;-75
2024/01/15 13:35:13;;;;;;;52.80;31.90;;;;;;;;;;6248464;27;20495;-75
2024/01/15 13:38:16;;;;;;;60.08;30.75;;;;;;;;;;6256096;27;20854;-74
2024/01/15 13:41:36;;;;;;;81.05;45.58;;;;;;;;;;6244635;27;20523;-75
2024/01/15 13:44:44;;;;;;;80.38;43.58;;;;;;;;;;6252299;27;20041;-74
2024/01/15 13:47:46;;;;;;;91.10;43.83;;;;;;;;;;6216430;27;20563;-75
2024/01/15 13:50:50;;;;;;;72.80;39.88;;;;;;;;;;6231330;27;20108;-75
2024/01/15 13:53:53;;;;;;;84.90;40.88;;;;;;;;;;6249613;27;20045;-76
2024/01/15 13:56:55;;;;;;;70.93;40.90;;;;;;;;;;6251693;27;20894;-76
2024/01/15 13:59:56;;;;;;;56.90;34.60;;;;;;;;;;6254363;27;20045;-76
2024/01/15 14:02:59;;;;;;;35.92;22.50;;;;;;;;;;6277298;27;20047;-76
2024/01/15 14:06:08;;;;;;;27.77;20.67;;;;;;;;;;6241914;27;20182;-75
2024/01/15 14:09:10;;;;;;;20.60;12.90;;;;;;;;;;6240557;28;20087;-76
2024/01/15 14:12:13;;;;;;;15.95;10.10;;;;;;;;;;6246268;27;20056;-75
2024/01/15 14:15:15;;;;;;;17.33;9.52;;;;;;;;;;6261345;27;20839;-76
2024/01/15 14:18:17;;;;;;;18.88;9.70;;;;;;;;;;6246378;27;20049;-76
2024/01/15 14:21:23;;;;;;;14.50;8.40;;;;;;;;;;6260893;27;20067;-76
2024/01/15 14:24:25;;;;;;;11.82;7.65;;;;;;;;;;6251364;27;20041;-76
2024/01/15 14:27:27;;;;;;;11.18;6.18;;;;;;;;;;6247380;27;20037;-76
2024/01/15 14:30:29;;;;;;;9.60;5.43;;;;;;;;;;6245695;27;20060;-76
2024/01/15 14:33:31;;;;;;;11.32;9.65;;;;;;;;;;6222711;27;20049;-76
2024/01/15 14:36:35;;;;;;;9.00;5.72;;;;;;;;;;6230516;27;20075;-76
2024/01/15 14:39:38;;;;;;;10.05;8.45;;;;;;;;;;6241463;27;20524;-76
2024/01/15 14:42:41;;;;;;;10.55;7.53;;;;;;;;;;6241451;27;20039;-75
2024/01/15 14:45:44;;;;;;;9.18;5.78;;;;;;;;;;6224535;27;20041;-76
2024/01/15 14:48:48;;;;;;;8.23;6.18;;;;;;;;;;6253622;27;20131;-74
2024/01/15 14:51:50;;;;;;;15.23;10.32;;;;;;;;;;6246098;27;20041;-75
2024/01/15 14:54:52;;;;;;;14.32;9.43;;;;;;;;;;6229052;27;20718;-76
2024/01/15 14:57:55;;;;;;;13.60;6.53;;;;;;;;;;6239815;27;20049;-74
2024/01/15 15:00:58;;;;;;;14.18;9.55;;;;;;;;;;6253288;27;20570;-76
2024/01/15 15:04:00;;;;;;;8.77;4.13;;;;;;;;;;6248112;27;20789;-75
2024/01/15 15:07:03;;;;;;;6.85;4.35;;;;;;;;;;6217441;27;20045;-75
2024/01/15 15:10:06;;;;;;;9.98;4.40;;;;;;;;;;6247184;27;20140;-75
2024/01/15 15:13:09;;;;;;;7.68;5.05;;;;;;;;;;6261491;27;20045;-75
2024/01/15 15:16:12;;;;;;;11.88;8.15;;;;;;;;;;6234198;27;20041;-76
2024/01/15 15:19:17;;;;;;;12.00;6.20;;;;;;;;;;6232773;27;20084;-75
2024/01/15 15:22:21;;;;;;;6.75;4.95;;;;;;;;;;6235138;27;20048;-75
2024/01/15 15:25:23;;;;;;;9.50;4.72;;;;;;;;;;6247693;28;20068;-76
2024/01/15 15:28:25;;;;;;;8.10;5.15;;;;;;;;;;6232481;28;20042;-77
2024/01/15 15:31:28;;;;;;;7.15;4.55;;;;;;;;;;6248058;27;20049;-76
2024/01/15 15:34:31;;;;;;;10.00;7.35;;;;;;;;;;6231639;28;20110;-77
2024/01/15 15:37:33;;;;;;;9.18;5.95;;;;;;;;;;6255133;27;20049;-76
2024/01/15 15:40:38;;;;;;;10.38;7.32;;;;;;;;;;6258395;27;20049;-76
2024/01/15 15:43:41;;;;;;;10.82;6.63;;;;;;;;;;6247367;28;20060;-76
2024/01/15 15:46:43;;;;;;;9.10;5.10;;;;;;;;;;6268216;27;20830;-76
2024/01/15 15:49:45;;;;;;;9.02;5.03;;;;;;;;;;6290745;27;20053;-76
2024/01/15 15:52:48;;;;;;;15.20;6.70;;;;;;;;;;6218026;27;20045;-76
2024/01/15 15:55:51;;;;;;;20.90;9.32;;;;;;;;;;6242368;27;20033;-76
2024/01/15 15:58:53;;;;;;;7.82;4.45;;;;;;;;;;6309222;27;20038;-76
2024/01/15 16:01:56;;;;;;;7.82;4.90;;;;;;;;;;6263519;27;20063;-77
2024/01/15 16:04:58;;;;;;;11.68;5.47;;;;;;;;;;6219768;28;20640;-77
2024/01/15 16:08:01;;;;;;;16.10;7.63;;;;;;;;;;6224919;27;20042;-76
2024/01/15 16:11:03;;;;;;;16.40;9.68;;;;;;;;;;6244140;27;20049;-76
2024/01/15 16:14:06;;;;;;;9.90;6.43;;;;;;;;;;6241346;27;20531;-76
2024/01/15 16:17:08;;;;;;;16.08;8.50;;;;;;;;;;6242559;27;20605;-75
2024/01/15 16:20:30;;;;;;;11.75;5.72;;;;;;;;;;6242942;27;20041;-74
2024/01/15 16:23:52;;;;;;;8.88;5.78;;;;;;;;;;6233032;27;20045;-76
2024/01/15 16:27:15;;;;;;;9.32;4.10;;;;;;;;;;6239768;27;20037;-75
2024/01/15 16:30:17;;;;;;;5.65;4.28;;;;;;;;;;6248577;27;20069;-77
2024/01/15 16:33:33;;;;;;;7.72;4.20;;;;;;;;;;6243259;27;20053;-75
2024/01/15 16:36:38;;;;;;;10.45;6.47;;;;;;;;;;6272927;27;20124;-75
2024/01/15 16:39:40;;;;;;;9.27;4.43;;;;;;;;;;6250534;27;20041;-75
2024/01/15 16:42:45;;;;;;;7.72;4.57;;;;;;;;;;6242422;27;20056;-76
2024/01/15 16:45:47;;;;;;;12.57;6.20;;;;;;;;;;6249062;27;20722;-76
2024/01/15 16:48:50;;;;;;;10.55;4.38;;;;;;;;;;6260058;27;20351;-75
2024/01/15 16:51:53;;;;;;;9.25;4.40;;;;;;;;;;6254465;27;20140;-76
2024/01/15 16:54:57;;;;;;;9.77;5.60;;;;;;;;;;6250909;27;20052;-76
2024/01/15 16:57:59;;;;;;;7.47;3.90;;;;;;;;;;6269287;27;20099;-74
2024/01/15 17:01:01;;;;;;;9.35;4.43;;;;;;;;;;6278561;27;20534;-75
2024/01/15 17:04:05;;;;;;;8.07;5.32;;;;;;;;;;6243891;27;20045;-76
2024/01/15 17:07:08;;;;;;;10.88;6.13;;;;;;;;;;6238825;27;20041;-76
2024/01/15 17:10:10;;;;;;;10.18;6.60;;;;;;;;;;6224980;27;20054;-75
2024/01/15 17:13:12;;;;;;;8.18;5.13;;;;;;;;;;6225230;27;20056;-75
2024/01/15 17:16:14;;;;;;;8.18;6.22;;;;;;;;;;6257476;27;20048;-75
2024/01/15 17:19:16;;;;;;;9.48;5.55;;;;;;;;;;6247433;27;20040;-75
2024/01/15 17:22:20;;;;;;;8.27;6.43;;;;;;;;;;6232661;28;20067;-76
2024/01/15 17:25:22;;;;;;;13.40;5.57;;;;;;;;;;6249497;27;20052;-75
2024/01/15 17:28:25;;;;;;;9.65;5.35;;;;;;;;;;6226759;27;20050;-78
2024/01/15 17:31:29;;;;;;;8.38;4.93;;;;;;;;;;6245598;27;20153;-78
2024/01/15 17:34:32;;;;;;;10.35;5.43;;;;;;;;;;6220604;27;20041;-77
2024/01/15 17:37:34;;;;;;;7.75;4.75;;;;;;;;;;6249799;27;20053;-77
2024/01/15 17:40:37;;;;;;;6.65;4.65;;;;;;;;;;6257443;27;20117;-77
2024/01/15 17:43:40;;;;;;;7.75;4.70;;;;;;;;;;6256564;27;20041;-78
2024/01/15 17:46:42;;;;;;;10.38;7.55;;;;;;;;;;6251707;27;20876;-75
2024/01/15 17:49:45;;;;;;;7.50;5.32;;;;;;;;;;6227642;27;20049;-75
2024/01/15 17:52:47;;;;;;;10.90;5.38;;;;;;;;;;6241722;27;20096;-75
2024/01/15 17:55:50;;;;;;;8.60;5.32;;;;;;;;;;6225898;27;20053;-74
2024/01/15 17:58:52;;;;;;;8.30;6.15;;;;;;;;;;6246630;27;20140;-74
2024/01/15 18:01:57;;;;;;;12.05;5.47;;;;;;;;;;6246454;27;20052;-76
2024/01/15 18:05:00;;;;;;;11.38;8.65;;;;;;;;;;6248497;27;20456;-76
2024/01/15 18:08:04;;;;;;;11.75;10.57;;;;;;;;;;6275612;27;20428;-76
2024/01/15 18:11:06;;;;;;;14.70;9.77;;;;;;;;;;6228384;27;20045;-75
2024/01/15 18:14:08;;;;;;;14.75;8.93;;;;;;;;;;6236003;28;20071;-76
2024/01/15 18:17:11;;;;;;;12.50;6.68;;;;;;;;;;6261871;27;20105;-76
2024/01/15 18:20:13;;;;;;;10.20;8.68;;;;;;;;;;6230294;27;20529;-77
2024/01/15 18:23:16;;;;;;;8.48;5.53;;;;;;;;;;6244129;27;20052;-77
2024/01/15 18:26:18;;;;;;;10.10;4.88;;;;;;;;;;6248052;27;20048;-77
2024/01/15 18:29:23;;;;;;;20.92;10.68;;;;;;;;;;6246331;27;20037;-76
2024/01/15 18:32:26;;;;;;;9.88;5.00;;;;;;;;;;6249447;28;20049;-76
2024/01/15 18:35:28;;;;;;;15.07;8.43;;;;;;;;;;6273523;27;20053;-76
2024/01/15 18:38:31;;;;;;;21.52;11.35;;;;;;;;;;6213175;27;20050;-76